sensor_id;sensor_type;location;lat;lon;timestamp;P1;durP1;ratioP1;P2;durP2;ratioP2
5026;SDS011;2532;52.480;13.354;2022-08-19T00:01:14;13.50;;;11.10;;
5026;SDS011;2532;52.480;13.354;2022-08-19T00:03:41;12.53;;;11.33;;
5026;SDS011;2532;52.480;13.354;2022-08-19T00:06:08;16.13;;;11.90;;
5026;SDS011;2532;52.480;13.354;2022-08-19T00:08:36;13.87;;;12.00;;
5026;SDS011;2532;52.480;13.354;2022-08-19T00:11:03;17.00;;;13.10;;
5026;SDS011;2532;52.480;13.354;2022-08-19T00:13:31;14.40;;;12.70;;
5026;SDS011;2532;52.480;13.354;2022-08-19T00:15:58;19.23;;;14.37;;
5026;SDS011;2532;52.480;13.354;2022-08-19T00:18:26;14.90;;;12.60;;
5026;SDS011;2532;52.480;13.354;2022-08-19T00:20:52;16.77;;;13.27;;
5026;SDS011;2532;52.480;13.354;2022-08-19T00:23:20;13.50;;;12.07;;
5026;SDS011;2532;52.480;13.354;2022-08-19T00:25:48;17.73;;;13.70;;
5026;SDS011;2532;52.480;13.354;2022-08-19T00:28:17;17.50;;;13.33;;
5026;SDS011;2532;52.480;13.354;2022-08-19T00:30:45;14.90;;;13.17;;
5026;SDS011;2532;52.480;13.354;2022-08-19T00:33:12;17.20;;;12.47;;
5026;SDS011;2532;52.480;13.354;2022-08-19T00:35:41;15.63;;;14.03;;
5026;SDS011;2532;52.480;13.354;2022-08-19T00:38:08;14.43;;;12.93;;
5026;SDS011;2532;52.480;13.354;2022-08-19T00:40:35;14.70;;;13.20;;
5026;SDS011;2532;52.480;13.354;2022-08-19T00:43:08;17.83;;;13.80;;
5026;SDS011;2532;52.480;13.354;2022-08-19T00:45:35;17.90;;;14.97;;
5026;SDS011;2532;52.480;13.354;2022-08-19T00:48:03;15.93;;;12.67;;
5026;SDS011;2532;52.480;13.354;2022-08-19T00:50:30;15.93;;;12.60;;
5026;SDS011;2532;52.480;13.354;2022-08-19T00:52:59;19.37;;;14.07;;
5026;SDS011;2532;52.480;13.354;2022-08-19T00:55:30;14.47;;;12.83;;
5026;SDS011;2532;52.480;13.354;2022-08-19T00:58:00;19.80;;;13.57;;
5026;SDS011;2532;52.480;13.354;2022-08-19T01:00:31;16.80;;;14.37;;
5026;SDS011;2532;52.480;13.354;2022-08-19T01:03:01;18.37;;;14.33;;
5026;SDS011;2532;52.480;13.354;2022-08-19T01:05:29;16.70;;;14.70;;
5026;SDS011;2532;52.480;13.354;2022-08-19T01:07:59;15.50;;;13.20;;
5026;SDS011;2532;52.480;13.354;2022-08-19T01:10:30;17.03;;;14.50;;
5026;SDS011;2532;52.480;13.354;2022-08-19T01:12:59;17.60;;;13.53;;
5026;SDS011;2532;52.480;13.354;2022-08-19T01:15:29;17.70;;;14.57;;
5026;SDS011;2532;52.480;13.354;2022-08-19T01:17:59;17.90;;;15.83;;
5026;SDS011;2532;52.480;13.354;2022-08-19T01:20:31;19.77;;;16.80;;
5026;SDS011;2532;52.480;13.354;2022-08-19T01:23:00;20.00;;;16.93;;
5026;SDS011;2532;52.480;13.354;2022-08-19T01:25:29;20.17;;;16.63;;
5026;SDS011;2532;52.480;13.354;2022-08-19T01:28:00;19.30;;;17.30;;
5026;SDS011;2532;52.480;13.354;2022-08-19T01:30:29;17.23;;;15.33;;
5026;SDS011;2532;52.480;13.354;2022-08-19T01:32:58;17.10;;;14.87;;
5026;SDS011;2532;52.480;13.354;2022-08-19T01:35:26;15.37;;;13.77;;
5026;SDS011;2532;52.480;13.354;2022-08-19T01:37:55;16.20;;;14.13;;
5026;SDS011;2532;52.480;13.354;2022-08-19T01:40:27;15.83;;;14.07;;
5026;SDS011;2532;52.480;13.354;2022-08-19T01:42:56;19.90;;;13.83;;
5026;SDS011;2532;52.480;13.354;2022-08-19T01:45:24;17.93;;;15.40;;
5026;SDS011;2532;52.480;13.354;2022-08-19T01:47:53;18.77;;;13.80;;
5026;SDS011;2532;52.480;13.354;2022-08-19T01:50:20;19.40;;;15.27;;
5026;SDS011;2532;52.480;13.354;2022-08-19T01:52:47;15.37;;;13.50;;
5026;SDS011;2532;52.480;13.354;2022-08-19T01:55:14;17.80;;;14.60;;
5026;SDS011;2532;52.480;13.354;2022-08-19T01:57:44;19.17;;;14.83;;
5026;SDS011;2532;52.480;13.354;2022-08-19T02:00:16;17.40;;;14.33;;
5026;SDS011;2532;52.480;13.354;2022-08-19T02:02:44;19.80;;;14.90;;
5026;SDS011;2532;52.480;13.354;2022-08-19T02:05:11;18.07;;;14.97;;
5026;SDS011;2532;52.480;13.354;2022-08-19T02:07:39;20.33;;;16.00;;
5026;SDS011;2532;52.480;13.354;2022-08-19T02:10:08;22.53;;;15.57;;
5026;SDS011;2532;52.480;13.354;2022-08-19T02:12:37;23.00;;;16.10;;
5026;SDS011;2532;52.480;13.354;2022-08-19T02:15:06;21.20;;;16.63;;
5026;SDS011;2532;52.480;13.354;2022-08-19T02:17:33;27.70;;;18.07;;
5026;SDS011;2532;52.480;13.354;2022-08-19T02:20:00;19.23;;;17.10;;
5026;SDS011;2532;52.480;13.354;2022-08-19T02:22:27;19.93;;;16.90;;
5026;SDS011;2532;52.480;13.354;2022-08-19T02:24:54;21.00;;;16.90;;
5026;SDS011;2532;52.480;13.354;2022-08-19T02:27:21;20.53;;;17.33;;
5026;SDS011;2532;52.480;13.354;2022-08-19T02:29:49;20.80;;;16.33;;
5026;SDS011;2532;52.480;13.354;2022-08-19T02:32:18;21.27;;;16.30;;
5026;SDS011;2532;52.480;13.354;2022-08-19T02:34:45;20.27;;;16.33;;
5026;SDS011;2532;52.480;13.354;2022-08-19T02:37:12;21.43;;;17.47;;
5026;SDS011;2532;52.480;13.354;2022-08-19T02:39:53;21.00;;;15.53;;
5026;SDS011;2532;52.480;13.354;2022-08-19T02:42:20;17.37;;;15.47;;
5026;SDS011;2532;52.480;13.354;2022-08-19T02:44:47;23.00;;;18.10;;
5026;SDS011;2532;52.480;13.354;2022-08-19T02:47:14;20.07;;;16.80;;
5026;SDS011;2532;52.480;13.354;2022-08-19T02:49:42;22.30;;;16.70;;
5026;SDS011;2532;52.480;13.354;2022-08-19T02:52:09;23.10;;;17.93;;
5026;SDS011;2532;52.480;13.354;2022-08-19T02:54:36;21.40;;;16.47;;
5026;SDS011;2532;52.480;13.354;2022-08-19T02:57:03;19.27;;;16.40;;
5026;SDS011;2532;52.480;13.354;2022-08-19T02:59:31;20.80;;;16.60;;
5026;SDS011;2532;52.480;13.354;2022-08-19T03:01:58;20.00;;;15.90;;
5026;SDS011;2532;52.480;13.354;2022-08-19T03:04:25;21.60;;;16.83;;
5026;SDS011;2532;52.480;13.354;2022-08-19T03:06:54;19.83;;;15.80;;
5026;SDS011;2532;52.480;13.354;2022-08-19T03:09:21;19.40;;;17.00;;
5026;SDS011;2532;52.480;13.354;2022-08-19T03:11:49;22.97;;;16.27;;
5026;SDS011;2532;52.480;13.354;2022-08-19T03:14:16;20.27;;;17.00;;
5026;SDS011;2532;52.480;13.354;2022-08-19T03:16:44;20.33;;;17.40;;
5026;SDS011;2532;52.480;13.354;2022-08-19T03:19:13;20.87;;;17.20;;
5026;SDS011;2532;52.480;13.354;2022-08-19T03:21:42;21.00;;;16.90;;
5026;SDS011;2532;52.480;13.354;2022-08-19T03:24:11;24.80;;;18.27;;
5026;SDS011;2532;52.480;13.354;2022-08-19T03:26:39;19.20;;;17.10;;
5026;SDS011;2532;52.480;13.354;2022-08-19T03:29:07;18.90;;;15.60;;
5026;SDS011;2532;52.480;13.354;2022-08-19T03:31:35;19.13;;;16.43;;
5026;SDS011;2532;52.480;13.354;2022-08-19T03:34:04;19.80;;;17.70;;
5026;SDS011;2532;52.480;13.354;2022-08-19T03:36:31;21.20;;;18.43;;
5026;SDS011;2532;52.480;13.354;2022-08-19T03:38:58;21.57;;;18.67;;
5026;SDS011;2532;52.480;13.354;2022-08-19T03:41:28;21.80;;;18.30;;
5026;SDS011;2532;52.480;13.354;2022-08-19T03:43:57;22.50;;;19.57;;
5026;SDS011;2532;52.480;13.354;2022-08-19T03:46:25;28.10;;;20.20;;
5026;SDS011;2532;52.480;13.354;2022-08-19T03:48:54;24.47;;;18.60;;
5026;SDS011;2532;52.480;13.354;2022-08-19T03:51:24;27.53;;;20.43;;
5026;SDS011;2532;52.480;13.354;2022-08-19T03:53:52;28.80;;;22.43;;
5026;SDS011;2532;52.480;13.354;2022-08-19T03:56:20;30.50;;;24.50;;
5026;SDS011;2532;52.480;13.354;2022-08-19T03:58:52;41.60;;;29.87;;
5026;SDS011;2532;52.480;13.354;2022-08-19T04:01:20;39.90;;;33.30;;
5026;SDS011;2532;52.480;13.354;2022-08-19T04:03:48;43.27;;;34.03;;
5026;SDS011;2532;52.480;13.354;2022-08-19T04:06:16;41.80;;;31.23;;
5026;SDS011;2532;52.480;13.354;2022-08-19T04:08:47;40.03;;;29.57;;
5026;SDS011;2532;52.480;13.354;2022-08-19T04:11:16;30.63;;;24.97;;
5026;SDS011;2532;52.480;13.354;2022-08-19T04:13:45;37.07;;;26.40;;
5026;SDS011;2532;52.480;13.354;2022-08-19T04:16:13;30.40;;;22.80;;
5026;SDS011;2532;52.480;13.354;2022-08-19T04:18:40;33.13;;;26.30;;
5026;SDS011;2532;52.480;13.354;2022-08-19T04:21:07;26.47;;;22.70;;
5026;SDS011;2532;52.480;13.354;2022-08-19T04:23:34;29.80;;;23.57;;
5026;SDS011;2532;52.480;13.354;2022-08-19T04:26:02;25.33;;;21.03;;
5026;SDS011;2532;52.480;13.354;2022-08-19T04:28:29;26.87;;;23.20;;
5026;SDS011;2532;52.480;13.354;2022-08-19T04:30:55;28.87;;;21.70;;
5026;SDS011;2532;52.480;13.354;2022-08-19T04:33:25;22.57;;;20.17;;
5026;SDS011;2532;52.480;13.354;2022-08-19T04:35:53;22.53;;;18.20;;
5026;SDS011;2532;52.480;13.354;2022-08-19T04:38:21;22.10;;;18.07;;
5026;SDS011;2532;52.480;13.354;2022-08-19T04:40:49;26.40;;;22.33;;
5026;SDS011;2532;52.480;13.354;2022-08-19T04:43:36;28.70;;;24.57;;
5026;SDS011;2532;52.480;13.354;2022-08-19T04:46:04;34.57;;;28.73;;
5026;SDS011;2532;52.480;13.354;2022-08-19T04:48:34;37.20;;;29.77;;
5026;SDS011;2532;52.480;13.354;2022-08-19T04:51:05;34.67;;;28.83;;
5026;SDS011;2532;52.480;13.354;2022-08-19T04:53:33;36.60;;;28.87;;
5026;SDS011;2532;52.480;13.354;2022-08-19T04:56:04;30.80;;;25.73;;
5026;SDS011;2532;52.480;13.354;2022-08-19T04:58:33;30.10;;;24.87;;
5026;SDS011;2532;52.480;13.354;2022-08-19T05:01:01;23.03;;;20.53;;
5026;SDS011;2532;52.480;13.354;2022-08-19T05:03:28;21.67;;;18.80;;
5026;SDS011;2532;52.480;13.354;2022-08-19T05:06:00;22.10;;;18.50;;
5026;SDS011;2532;52.480;13.354;2022-08-19T05:08:32;20.20;;;18.10;;
5026;SDS011;2532;52.480;13.354;2022-08-19T05:11:00;19.90;;;17.30;;
5026;SDS011;2532;52.480;13.354;2022-08-19T05:13:27;21.90;;;16.40;;
5026;SDS011;2532;52.480;13.354;2022-08-19T05:15:55;21.13;;;18.87;;
5026;SDS011;2532;52.480;13.354;2022-08-19T05:18:23;19.53;;;17.10;;
5026;SDS011;2532;52.480;13.354;2022-08-19T05:21:09;21.50;;;16.97;;
5026;SDS011;2532;52.480;13.354;2022-08-19T05:23:55;21.10;;;18.30;;
5026;SDS011;2532;52.480;13.354;2022-08-19T05:26:22;21.47;;;17.60;;
5026;SDS011;2532;52.480;13.354;2022-08-19T05:28:50;19.70;;;16.50;;
5026;SDS011;2532;52.480;13.354;2022-08-19T05:31:17;20.10;;;17.10;;
5026;SDS011;2532;52.480;13.354;2022-08-19T05:33:44;18.60;;;15.60;;
5026;SDS011;2532;52.480;13.354;2022-08-19T05:36:13;17.87;;;15.83;;
5026;SDS011;2532;52.480;13.354;2022-08-19T05:38:40;17.77;;;15.87;;
5026;SDS011;2532;52.480;13.354;2022-08-19T05:41:07;19.00;;;17.00;;
5026;SDS011;2532;52.480;13.354;2022-08-19T05:43:37;17.33;;;15.70;;
5026;SDS011;2532;52.480;13.354;2022-08-19T05:46:04;16.37;;;14.37;;
5026;SDS011;2532;52.480;13.354;2022-08-19T05:48:31;22.03;;;15.20;;
5026;SDS011;2532;52.480;13.354;2022-08-19T05:51:02;17.30;;;15.00;;
5026;SDS011;2532;52.480;13.354;2022-08-19T05:53:32;17.13;;;15.03;;
5026;SDS011;2532;52.480;13.354;2022-08-19T05:56:03;17.30;;;15.43;;
5026;SDS011;2532;52.480;13.354;2022-08-19T05:58:30;17.07;;;15.13;;
5026;SDS011;2532;52.480;13.354;2022-08-19T06:00:57;17.97;;;15.57;;
5026;SDS011;2532;52.480;13.354;2022-08-19T06:03:29;16.17;;;14.47;;
5026;SDS011;2532;52.480;13.354;2022-08-19T06:05:56;18.67;;;15.53;;
5026;SDS011;2532;52.480;13.354;2022-08-19T06:08:24;16.07;;;14.33;;
5026;SDS011;2532;52.480;13.354;2022-08-19T06:10:53;16.60;;;14.77;;
5026;SDS011;2532;52.480;13.354;2022-08-19T06:13:20;20.40;;;16.07;;
5026;SDS011;2532;52.480;13.354;2022-08-19T06:15:48;18.47;;;15.23;;
5026;SDS011;2532;52.480;13.354;2022-08-19T06:18:15;18.63;;;16.60;;
5026;SDS011;2532;52.480;13.354;2022-08-19T06:20:42;17.40;;;15.50;;
5026;SDS011;2532;52.480;13.354;2022-08-19T06:23:09;18.77;;;15.13;;
5026;SDS011;2532;52.480;13.354;2022-08-19T06:25:36;16.47;;;14.60;;
5026;SDS011;2532;52.480;13.354;2022-08-19T06:28:06;20.13;;;15.87;;
5026;SDS011;2532;52.480;13.354;2022-08-19T06:30:33;22.57;;;15.60;;
5026;SDS011;2532;52.480;13.354;2022-08-19T06:33:02;19.83;;;15.37;;
5026;SDS011;2532;52.480;13.354;2022-08-19T06:35:28;21.93;;;16.23;;
5026;SDS011;2532;52.480;13.354;2022-08-19T06:37:55;17.50;;;15.03;;
5026;SDS011;2532;52.480;13.354;2022-08-19T06:40:22;21.93;;;16.30;;
5026;SDS011;2532;52.480;13.354;2022-08-19T06:42:50;19.20;;;16.47;;
5026;SDS011;2532;52.480;13.354;2022-08-19T06:45:19;20.80;;;16.27;;
5026;SDS011;2532;52.480;13.354;2022-08-19T06:47:46;21.50;;;16.97;;
5026;SDS011;2532;52.480;13.354;2022-08-19T06:50:13;19.63;;;16.40;;
5026;SDS011;2532;52.480;13.354;2022-08-19T06:52:40;21.97;;;15.80;;
5026;SDS011;2532;52.480;13.354;2022-08-19T06:55:07;19.67;;;16.33;;
5026;SDS011;2532;52.480;13.354;2022-08-19T06:57:34;20.93;;;17.83;;
5026;SDS011;2532;52.480;13.354;2022-08-19T07:00:02;19.80;;;15.70;;
5026;SDS011;2532;52.480;13.354;2022-08-19T07:02:32;19.03;;;17.00;;
5026;SDS011;2532;52.480;13.354;2022-08-19T07:05:02;20.40;;;16.83;;
5026;SDS011;2532;52.480;13.354;2022-08-19T07:07:30;22.27;;;16.87;;
5026;SDS011;2532;52.480;13.354;2022-08-19T07:09:57;18.30;;;16.50;;
5026;SDS011;2532;52.480;13.354;2022-08-19T07:12:24;19.67;;;17.67;;
5026;SDS011;2532;52.480;13.354;2022-08-19T07:14:52;21.07;;;17.57;;
5026;SDS011;2532;52.480;13.354;2022-08-19T07:17:18;21.40;;;17.80;;
5026;SDS011;2532;52.480;13.354;2022-08-19T07:19:47;24.17;;;18.23;;
5026;SDS011;2532;52.480;13.354;2022-08-19T07:22:15;21.77;;;19.17;;
5026;SDS011;2532;52.480;13.354;2022-08-19T07:24:42;21.10;;;18.80;;
5026;SDS011;2532;52.480;13.354;2022-08-19T07:27:10;22.83;;;18.50;;
5026;SDS011;2532;52.480;13.354;2022-08-19T07:29:36;21.23;;;18.10;;
5026;SDS011;2532;52.480;13.354;2022-08-19T07:32:04;23.03;;;17.97;;
5026;SDS011;2532;52.480;13.354;2022-08-19T07:34:32;19.43;;;17.40;;
5026;SDS011;2532;52.480;13.354;2022-08-19T07:37:02;21.00;;;18.70;;
5026;SDS011;2532;52.480;13.354;2022-08-19T07:39:31;21.13;;;18.87;;
5026;SDS011;2532;52.480;13.354;2022-08-19T07:42:01;22.93;;;18.30;;
5026;SDS011;2532;52.480;13.354;2022-08-19T07:44:31;22.13;;;17.63;;
5026;SDS011;2532;52.480;13.354;2022-08-19T07:46:59;21.30;;;19.10;;
5026;SDS011;2532;52.480;13.354;2022-08-19T07:49:27;20.83;;;18.50;;
5026;SDS011;2532;52.480;13.354;2022-08-19T07:51:54;20.27;;;18.13;;
5026;SDS011;2532;52.480;13.354;2022-08-19T07:54:24;19.87;;;17.80;;
5026;SDS011;2532;52.480;13.354;2022-08-19T07:56:53;25.23;;;19.87;;
5026;SDS011;2532;52.480;13.354;2022-08-19T07:59:20;20.33;;;18.33;;
5026;SDS011;2532;52.480;13.354;2022-08-19T08:01:48;22.30;;;19.80;;
5026;SDS011;2532;52.480;13.354;2022-08-19T08:04:16;24.67;;;20.53;;
5026;SDS011;2532;52.480;13.354;2022-08-19T08:07:00;22.77;;;20.37;;
5026;SDS011;2532;52.480;13.354;2022-08-19T08:09:46;24.27;;;20.47;;
5026;SDS011;2532;52.480;13.354;2022-08-19T08:12:14;21.90;;;18.07;;
5026;SDS011;2532;52.480;13.354;2022-08-19T08:14:43;20.67;;;17.87;;
5026;SDS011;2532;52.480;13.354;2022-08-19T08:17:12;26.20;;;19.63;;
5026;SDS011;2532;52.480;13.354;2022-08-19T08:19:41;24.07;;;19.03;;
5026;SDS011;2532;52.480;13.354;2022-08-19T08:22:09;21.50;;;19.20;;
5026;SDS011;2532;52.480;13.354;2022-08-19T08:25:03;23.57;;;21.07;;
5026;SDS011;2532;52.480;13.354;2022-08-19T08:27:31;26.10;;;21.97;;
5026;SDS011;2532;52.480;13.354;2022-08-19T08:30:01;21.20;;;19.00;;
5026;SDS011;2532;52.480;13.354;2022-08-19T08:32:29;23.93;;;20.60;;
5026;SDS011;2532;52.480;13.354;2022-08-19T08:34:56;23.03;;;20.70;;
5026;SDS011;2532;52.480;13.354;2022-08-19T08:37:23;25.83;;;19.70;;
5026;SDS011;2532;52.480;13.354;2022-08-19T08:39:50;25.37;;;19.60;;
5026;SDS011;2532;52.480;13.354;2022-08-19T08:42:19;22.73;;;20.27;;
5026;SDS011;2532;52.480;13.354;2022-08-19T08:44:52;26.13;;;21.60;;
5026;SDS011;2532;52.480;13.354;2022-08-19T08:47:24;24.00;;;21.53;;
5026;SDS011;2532;52.480;13.354;2022-08-19T08:49:55;25.90;;;20.63;;
5026;SDS011;2532;52.480;13.354;2022-08-19T08:52:26;23.47;;;21.00;;
5026;SDS011;2532;52.480;13.354;2022-08-19T08:54:59;25.70;;;22.50;;
5026;SDS011;2532;52.480;13.354;2022-08-19T08:57:35;22.77;;;20.30;;
5026;SDS011;2532;52.480;13.354;2022-08-19T09:00:07;24.10;;;21.60;;
5026;SDS011;2532;52.480;13.354;2022-08-19T09:02:38;23.97;;;20.50;;
5026;SDS011;2532;52.480;13.354;2022-08-19T09:05:05;23.63;;;20.57;;
5026;SDS011;2532;52.480;13.354;2022-08-19T09:07:39;22.70;;;20.30;;
5026;SDS011;2532;52.480;13.354;2022-08-19T09:10:15;23.23;;;20.73;;
5026;SDS011;2532;52.480;13.354;2022-08-19T09:12:52;23.80;;;20.87;;
5026;SDS011;2532;52.480;13.354;2022-08-19T09:15:25;24.87;;;19.73;;
5026;SDS011;2532;52.480;13.354;2022-08-19T09:17:59;26.80;;;20.57;;
5026;SDS011;2532;52.480;13.354;2022-08-19T09:20:28;22.47;;;20.03;;
5026;SDS011;2532;52.480;13.354;2022-08-19T09:22:56;22.20;;;18.80;;
5026;SDS011;2532;52.480;13.354;2022-08-19T09:25:23;21.77;;;19.47;;
5026;SDS011;2532;52.480;13.354;2022-08-19T09:27:53;20.47;;;18.40;;
5026;SDS011;2532;52.480;13.354;2022-08-19T09:30:22;24.33;;;20.70;;
5026;SDS011;2532;52.480;13.354;2022-08-19T09:32:53;21.70;;;19.27;;
5026;SDS011;2532;52.480;13.354;2022-08-19T09:35:21;28.90;;;20.33;;
5026;SDS011;2532;52.480;13.354;2022-08-19T09:37:52;24.60;;;20.10;;
5026;SDS011;2532;52.480;13.354;2022-08-19T09:40:20;22.63;;;19.63;;
5026;SDS011;2532;52.480;13.354;2022-08-19T09:42:47;20.53;;;18.43;;
5026;SDS011;2532;52.480;13.354;2022-08-19T09:45:16;24.13;;;19.53;;
5026;SDS011;2532;52.480;13.354;2022-08-19T09:47:46;21.60;;;17.60;;
5026;SDS011;2532;52.480;13.354;2022-08-19T09:50:15;20.63;;;18.43;;
5026;SDS011;2532;52.480;13.354;2022-08-19T09:52:43;21.20;;;19.10;;
5026;SDS011;2532;52.480;13.354;2022-08-19T09:55:10;20.97;;;18.37;;
5026;SDS011;2532;52.480;13.354;2022-08-19T09:57:38;20.70;;;18.50;;
5026;SDS011;2532;52.480;13.354;2022-08-19T10:00:06;24.93;;;20.00;;
5026;SDS011;2532;52.480;13.354;2022-08-19T10:02:36;21.20;;;18.90;;
5026;SDS011;2532;52.480;13.354;2022-08-19T10:05:04;20.87;;;18.67;;
5026;SDS011;2532;52.480;13.354;2022-08-19T10:07:48;23.43;;;18.53;;
5026;SDS011;2532;52.480;13.354;2022-08-19T10:10:16;20.20;;;18.03;;
5026;SDS011;2532;52.480;13.354;2022-08-19T10:12:44;23.50;;;18.30;;
5026;SDS011;2532;52.480;13.354;2022-08-19T10:15:12;21.40;;;18.90;;
5026;SDS011;2532;52.480;13.354;2022-08-19T10:17:41;20.13;;;17.80;;
5026;SDS011;2532;52.480;13.354;2022-08-19T10:20:08;21.70;;;18.37;;
5026;SDS011;2532;52.480;13.354;2022-08-19T10:22:39;20.70;;;18.50;;
5026;SDS011;2532;52.480;13.354;2022-08-19T10:25:07;20.87;;;18.47;;
5026;SDS011;2532;52.480;13.354;2022-08-19T10:27:36;23.80;;;17.80;;
5026;SDS011;2532;52.480;13.354;2022-08-19T10:30:04;24.07;;;18.17;;
5026;SDS011;2532;52.480;13.354;2022-08-19T10:32:33;21.50;;;17.70;;
5026;SDS011;2532;52.480;13.354;2022-08-19T10:35:03;19.53;;;17.40;;
5026;SDS011;2532;52.480;13.354;2022-08-19T10:37:33;23.63;;;17.10;;
5026;SDS011;2532;52.480;13.354;2022-08-19T10:40:00;19.40;;;17.23;;
5026;SDS011;2532;52.480;13.354;2022-08-19T10:42:28;20.13;;;17.73;;
5026;SDS011;2532;52.480;13.354;2022-08-19T10:44:56;18.40;;;16.40;;
5026;SDS011;2532;52.480;13.354;2022-08-19T10:47:23;19.57;;;17.40;;
5026;SDS011;2532;52.480;13.354;2022-08-19T10:49:50;19.20;;;17.10;;
5026;SDS011;2532;52.480;13.354;2022-08-19T10:52:37;18.40;;;16.50;;
5026;SDS011;2532;52.480;13.354;2022-08-19T10:55:05;18.43;;;16.33;;
5026;SDS011;2532;52.480;13.354;2022-08-19T10:57:50;19.20;;;16.30;;
5026;SDS011;2532;52.480;13.354;2022-08-19T11:00:18;21.10;;;17.47;;
5026;SDS011;2532;52.480;13.354;2022-08-19T11:02:46;18.67;;;16.77;;
5026;SDS011;2532;52.480;13.354;2022-08-19T11:05:14;18.47;;;16.57;;
5026;SDS011;2532;52.480;13.354;2022-08-19T11:07:44;19.97;;;16.90;;
5026;SDS011;2532;52.480;13.354;2022-08-19T11:10:12;20.00;;;16.80;;
5026;SDS011;2532;52.480;13.354;2022-08-19T11:12:44;17.87;;;16.07;;
5026;SDS011;2532;52.480;13.354;2022-08-19T11:15:12;17.90;;;16.00;;
5026;SDS011;2532;52.480;13.354;2022-08-19T11:17:42;17.40;;;15.70;;
5026;SDS011;2532;52.480;13.354;2022-08-19T11:20:10;17.77;;;15.90;;
5026;SDS011;2532;52.480;13.354;2022-08-19T11:22:39;22.23;;;17.30;;
5026;SDS011;2532;52.480;13.354;2022-08-19T11:25:09;17.63;;;15.07;;
5026;SDS011;2532;52.480;13.354;2022-08-19T11:27:38;16.07;;;14.37;;
5026;SDS011;2532;52.480;13.354;2022-08-19T11:30:16;17.40;;;15.47;;
5026;SDS011;2532;52.480;13.354;2022-08-19T11:32:43;17.80;;;14.77;;
5026;SDS011;2532;52.480;13.354;2022-08-19T11:35:10;17.87;;;15.67;;
5026;SDS011;2532;52.480;13.354;2022-08-19T11:37:37;17.90;;;15.57;;
5026;SDS011;2532;52.480;13.354;2022-08-19T11:40:06;16.83;;;14.60;;
5026;SDS011;2532;52.480;13.354;2022-08-19T11:42:39;17.17;;;15.37;;
5026;SDS011;2532;52.480;13.354;2022-08-19T11:45:21;17.13;;;14.93;;
5026;SDS011;2532;52.480;13.354;2022-08-19T11:47:48;16.40;;;14.70;;
5026;SDS011;2532;52.480;13.354;2022-08-19T11:50:15;16.93;;;14.80;;
5026;SDS011;2532;52.480;13.354;2022-08-19T11:52:42;16.97;;;15.07;;
5026;SDS011;2532;52.480;13.354;2022-08-19T11:55:11;15.97;;;14.37;;
5026;SDS011;2532;52.480;13.354;2022-08-19T11:57:39;19.33;;;15.23;;
5026;SDS011;2532;52.480;13.354;2022-08-19T12:00:08;16.00;;;14.33;;
5026;SDS011;2532;52.480;13.354;2022-08-19T12:02:38;16.53;;;14.83;;
5026;SDS011;2532;52.480;13.354;2022-08-19T12:05:05;16.07;;;14.37;;
5026;SDS011;2532;52.480;13.354;2022-08-19T12:07:33;17.07;;;13.60;;
5026;SDS011;2532;52.480;13.354;2022-08-19T12:10:00;14.20;;;12.80;;
5026;SDS011;2532;52.480;13.354;2022-08-19T12:12:29;14.50;;;13.00;;
5026;SDS011;2532;52.480;13.354;2022-08-19T12:14:56;15.90;;;12.90;;
5026;SDS011;2532;52.480;13.354;2022-08-19T12:17:23;14.37;;;12.87;;
5026;SDS011;2532;52.480;13.354;2022-08-19T12:19:51;16.43;;;12.90;;
5026;SDS011;2532;52.480;13.354;2022-08-19T12:22:18;14.03;;;12.63;;
5026;SDS011;2532;52.480;13.354;2022-08-19T12:24:46;12.90;;;11.30;;
5026;SDS011;2532;52.480;13.354;2022-08-19T12:27:15;14.30;;;12.80;;
5026;SDS011;2532;52.480;13.354;2022-08-19T12:29:45;13.97;;;12.60;;
5026;SDS011;2532;52.480;13.354;2022-08-19T12:32:12;14.90;;;12.33;;
5026;SDS011;2532;52.480;13.354;2022-08-19T12:34:39;13.27;;;11.97;;
5026;SDS011;2532;52.480;13.354;2022-08-19T12:37:06;15.70;;;12.40;;
5026;SDS011;2532;52.480;13.354;2022-08-19T12:39:38;16.73;;;12.73;;
5026;SDS011;2532;52.480;13.354;2022-08-19T12:42:07;15.67;;;12.77;;
5026;SDS011;2532;52.480;13.354;2022-08-19T12:44:34;14.23;;;12.00;;
5026;SDS011;2532;52.480;13.354;2022-08-19T12:47:03;13.07;;;11.50;;
5026;SDS011;2532;52.480;13.354;2022-08-19T12:49:30;12.00;;;10.83;;
5026;SDS011;2532;52.480;13.354;2022-08-19T12:51:59;13.40;;;11.33;;
5026;SDS011;2532;52.480;13.354;2022-08-19T12:54:25;11.67;;;10.53;;
5026;SDS011;2532;52.480;13.354;2022-08-19T12:56:52;14.63;;;10.70;;
5026;SDS011;2532;52.480;13.354;2022-08-19T12:59:20;13.27;;;10.63;;
5026;SDS011;2532;52.480;13.354;2022-08-19T13:01:47;14.63;;;12.17;;
5026;SDS011;2532;52.480;13.354;2022-08-19T13:04:15;13.27;;;11.87;;
5026;SDS011;2532;52.480;13.354;2022-08-19T13:06:42;13.47;;;12.27;;
5026;SDS011;2532;52.480;13.354;2022-08-19T13:09:09;14.23;;;12.70;;
5026;SDS011;2532;52.480;13.354;2022-08-19T13:11:37;14.50;;;13.00;;
5026;SDS011;2532;52.480;13.354;2022-08-19T13:14:04;15.00;;;12.63;;
5026;SDS011;2532;52.480;13.354;2022-08-19T13:16:30;14.87;;;13.27;;
5026;SDS011;2532;52.480;13.354;2022-08-19T13:18:57;15.07;;;12.90;;
5026;SDS011;2532;52.480;13.354;2022-08-19T13:21:26;15.30;;;13.70;;
5026;SDS011;2532;52.480;13.354;2022-08-19T13:23:55;16.03;;;13.17;;
5026;SDS011;2532;52.480;13.354;2022-08-19T13:26:22;14.40;;;13.00;;
5026;SDS011;2532;52.480;13.354;2022-08-19T13:28:49;14.30;;;12.80;;
5026;SDS011;2532;52.480;13.354;2022-08-19T13:31:34;15.77;;;13.87;;
5026;SDS011;2532;52.480;13.354;2022-08-19T13:34:25;15.07;;;13.43;;
5026;SDS011;2532;52.480;13.354;2022-08-19T13:36:56;15.00;;;13.50;;
5026;SDS011;2532;52.480;13.354;2022-08-19T13:39:23;13.57;;;12.17;;
5026;SDS011;2532;52.480;13.354;2022-08-19T13:41:52;14.53;;;13.03;;
5026;SDS011;2532;52.480;13.354;2022-08-19T13:44:19;19.27;;;14.03;;
5026;SDS011;2532;52.480;13.354;2022-08-19T13:46:47;14.50;;;13.07;;
5026;SDS011;2532;52.480;13.354;2022-08-19T13:49:18;14.97;;;13.37;;
5026;SDS011;2532;52.480;13.354;2022-08-19T13:51:45;16.03;;;14.43;;
5026;SDS011;2532;52.480;13.354;2022-08-19T13:54:13;16.73;;;13.50;;
5026;SDS011;2532;52.480;13.354;2022-08-19T13:56:40;15.07;;;13.57;;
5026;SDS011;2532;52.480;13.354;2022-08-19T13:59:08;14.67;;;12.73;;
5026;SDS011;2532;52.480;13.354;2022-08-19T14:01:35;14.83;;;13.30;;
5026;SDS011;2532;52.480;13.354;2022-08-19T14:04:03;15.23;;;13.60;;
5026;SDS011;2532;52.480;13.354;2022-08-19T14:06:30;14.53;;;13.00;;
5026;SDS011;2532;52.480;13.354;2022-08-19T14:08:57;15.60;;;14.00;;
5026;SDS011;2532;52.480;13.354;2022-08-19T14:11:26;14.20;;;12.80;;
5026;SDS011;2532;52.480;13.354;2022-08-19T14:13:53;14.00;;;12.47;;
5026;SDS011;2532;52.480;13.354;2022-08-19T14:16:20;14.70;;;13.20;;
5026;SDS011;2532;52.480;13.354;2022-08-19T14:18:47;16.70;;;13.07;;
5026;SDS011;2532;52.480;13.354;2022-08-19T14:21:14;13.50;;;12.10;;
5026;SDS011;2532;52.480;13.354;2022-08-19T14:23:43;14.17;;;12.60;;
5026;SDS011;2532;52.480;13.354;2022-08-19T14:26:11;14.40;;;12.07;;
5026;SDS011;2532;52.480;13.354;2022-08-19T14:28:41;13.70;;;12.17;;
5026;SDS011;2532;52.480;13.354;2022-08-19T14:31:12;14.33;;;12.87;;
5026;SDS011;2532;52.480;13.354;2022-08-19T14:33:43;16.17;;;13.10;;
5026;SDS011;2532;52.480;13.354;2022-08-19T14:36:10;14.20;;;12.77;;
5026;SDS011;2532;52.480;13.354;2022-08-19T14:38:37;14.80;;;13.40;;
5026;SDS011;2532;52.480;13.354;2022-08-19T14:41:06;13.83;;;12.53;;
5026;SDS011;2532;52.480;13.354;2022-08-19T14:43:34;16.00;;;11.97;;